sensor_id;sensor_type;location;lat;lon;timestamp;temperature;humidity
14687;DHT22;7431;49.440;11.084;2024-03-23T00:52:58;8.80;1.00
14687;DHT22;7431;49.440;11.084;2024-03-23T00:55:23;8.80;1.00
14687;DHT22;7431;49.440;11.084;2024-03-23T00:57:49;8.90;1.00
14687;DHT22;7431;49.440;11.084;2024-03-23T01:00:15;8.80;1.00
14687;DHT22;7431;49.440;11.084;2024-03-23T01:02:41;9.00;1.00
14687;DHT22;7431;49.440;11.084;2024-03-23T01:05:06;8.80;1.00
14687;DHT22;7431;49.440;11.084;2024-03-23T01:07:32;8.80;99.90
14687;DHT22;7431;49.440;11.084;2024-03-23T01:09:57;9.10;99.90
14687;DHT22;7431;49.440;11.084;2024-03-23T01:12:23;9.10;99.90
14687;DHT22;7431;49.440;11.084;2024-03-23T01:14:49;8.60;99.90
14687;DHT22;7431;49.440;11.084;2024-03-23T01:17:14;8.60;1.00
14687;DHT22;7431;49.440;11.084;2024-03-23T01:19:40;8.50;1.00
14687;DHT22;7431;49.440;11.084;2024-03-23T01:22:07;9.00;1.00
14687;DHT22;7431;49.440;11.084;2024-03-23T01:24:32;8.70;1.00
14687;DHT22;7431;49.440;11.084;2024-03-23T01:26:58;8.90;99.90
14687;DHT22;7431;49.440;11.084;2024-03-23T01:29:24;9.00;1.00
14687;DHT22;7431;49.440;11.084;2024-03-23T01:31:49;8.90;1.00
14687;DHT22;7431;49.440;11.084;2024-03-23T01:34:15;9.00;99.90
14687;DHT22;7431;49.440;11.084;2024-03-23T01:36:40;8.90;99.90
14687;DHT22;7431;49.440;11.084;2024-03-23T01:39:06;8.90;99.90
14687;DHT22;7431;49.440;11.084;2024-03-23T01:41:35;8.80;1.00
14687;DHT22;7431;49.440;11.084;2024-03-23T01:44:05;9.90;1.00
14687;DHT22;7431;49.440;11.084;2024-03-23T01:46:31;9.20;99.90
14687;DHT22;7431;49.440;11.084;2024-03-23T01:48:57;9.10;1.00
14687;DHT22;7431;49.440;11.084;2024-03-23T01:51:23;9.90;99.90
14687;DHT22;7431;49.440;11.084;2024-03-23T01:53:49;10.10;1.00
14687;DHT22;7431;49.440;11.084;2024-03-23T01:56:15;9.10;99.90
14687;DHT22;7431;49.440;11.084;2024-03-23T01:58:40;9.30;21.20
14687;DHT22;7431;49.440;11.084;2024-03-23T02:01:06;9.60;1.00
14687;DHT22;7431;49.440;11.084;2024-03-23T02:03:31;9.40;1.00
14687;DHT22;7431;49.440;11.084;2024-03-23T02:05:57;9.30;1.00
14687;DHT22;7431;49.440;11.084;2024-03-23T02:08:23;9.80;99.90
14687;DHT22;7431;49.440;11.084;2024-03-23T02:10:50;9.50;1.00
14687;DHT22;7431;49.440;11.084;2024-03-23T02:13:17;9.50;1.00
14687;DHT22;7431;49.440;11.084;2024-03-23T02:15:43;9.60;1.00
14687;DHT22;7431;49.440;11.084;2024-03-23T02:18:10;9.80;1.00
14687;DHT22;7431;49.440;11.084;2024-03-23T02:20:36;9.50;1.00
14687;DHT22;7431;49.440;11.084;2024-03-23T02:23:02;9.90;1.00
14687;DHT22;7431;49.440;11.084;2024-03-23T02:25:28;9.60;1.00
14687;DHT22;7431;49.440;11.084;2024-03-23T02:27:54;9.40;1.00
14687;DHT22;7431;49.440;11.084;2024-03-23T02:30:20;10.00;1.00
14687;DHT22;7431;49.440;11.084;2024-03-23T02:32:46;9.60;99.90
14687;DHT22;7431;49.440;11.084;2024-03-23T02:35:12;10.00;95.60
14687;DHT22;7431;49.440;11.084;2024-03-23T02:37:37;9.90;1.00
14687;DHT22;7431;49.440;11.084;2024-03-23T02:40:03;10.10;1.00
14687;DHT22;7431;49.440;11.084;2024-03-23T02:42:29;9.90;1.00
14687;DHT22;7431;49.440;11.084;2024-03-23T02:44:54;9.70;1.00
14687;DHT22;7431;49.440;11.084;2024-03-23T02:47:20;10.20;1.00
14687;DHT22;7431;49.440;11.084;2024-03-23T02:49:46;10.10;1.00
14687;DHT22;7431;49.440;11.084;2024-03-23T02:52:11;10.50;1.00
14687;DHT22;7431;49.440;11.084;2024-03-23T02:54:37;10.30;1.00
14687;DHT22;7431;49.440;11.084;2024-03-23T02:57:02;10.00;1.00
14687;DHT22;7431;49.440;11.084;2024-03-23T02:59:28;10.20;99.90
14687;DHT22;7431;49.440;11.084;2024-03-23T03:01:53;10.50;99.90
14687;DHT22;7431;49.440;11.084;2024-03-23T03:04:19;10.10;99.90
14687;DHT22;7431;49.440;11.084;2024-03-23T03:06:48;10.70;99.90
14687;DHT22;7431;49.440;11.084;2024-03-23T03:09:14;10.20;99.90
14687;DHT22;7431;49.440;11.084;2024-03-23T03:11:39;10.30;99.90
14687;DHT22;7431;49.440;11.084;2024-03-23T03:14:05;10.60;99.90
14687;DHT22;7431;49.440;11.084;2024-03-23T03:16:32;11.10;99.90
14687;DHT22;7431;49.440;11.084;2024-03-23T03:18:58;10.20;99.90
14687;DHT22;7431;49.440;11.084;2024-03-23T03:21:24;10.20;99.90
14687;DHT22;7431;49.440;11.084;2024-03-23T03:23:49;10.20;99.90
14687;DHT22;7431;49.440;11.084;2024-03-23T03:26:16;10.20;99.90
14687;DHT22;7431;49.440;11.084;2024-03-23T03:28:43;10.30;99.90
14687;DHT22;7431;49.440;11.084;2024-03-23T03:31:09;10.30;99.90
14687;DHT22;7431;49.440;11.084;2024-03-23T03:33:35;10.50;99.90
14687;DHT22;7431;49.440;11.084;2024-03-23T03:36:00;10.20;99.90
14687;DHT22;7431;49.440;11.084;2024-03-23T03:38:26;10.20;99.90
14687;DHT22;7431;49.440;11.084;2024-03-23T03:40:51;10.10;1.00
14687;DHT22;7431;49.440;11.084;2024-03-23T03:43:18;10.00;1.00
14687;DHT22;7431;49.440;11.084;2024-03-23T03:45:52;9.90;1.00
14687;DHT22;7431;49.440;11.084;2024-03-23T03:48:17;10.90;1.00
14687;DHT22;7431;49.440;11.084;2024-03-23T03:50:43;9.90;1.00
14687;DHT22;7431;49.440;11.084;2024-03-23T03:53:09;9.90;1.00
14687;DHT22;7431;49.440;11.084;2024-03-23T03:55:34;9.90;1.00
14687;DHT22;7431;49.440;11.084;2024-03-23T03:58:00;10.00;1.00
14687;DHT22;7431;49.440;11.084;2024-03-23T04:00:25;10.00;1.00
14687;DHT22;7431;49.440;11.084;2024-03-23T04:02:51;10.00;1.00
14687;DHT22;7431;49.440;11.084;2024-03-23T04:05:16;10.00;1.00
14687;DHT22;7431;49.440;11.084;2024-03-23T04:07:42;10.00;1.00
14687;DHT22;7431;49.440;11.084;2024-03-23T04:10:08;10.00;1.00
14687;DHT22;7431;49.440;11.084;2024-03-23T04:12:34;9.90;1.00
14687;DHT22;7431;49.440;11.084;2024-03-23T04:15:00;9.90;99.90
14687;DHT22;7431;49.440;11.084;2024-03-23T04:17:28;9.90;99.90
14687;DHT22;7431;49.440;11.084;2024-03-23T04:19:58;10.60;99.90
14687;DHT22;7431;49.440;11.084;2024-03-23T04:22:24;10.30;1.00
14687;DHT22;7431;49.440;11.084;2024-03-23T04:24:58;9.80;1.00
14687;DHT22;7431;49.440;11.084;2024-03-23T04:27:24;9.50;99.90
14687;DHT22;7431;49.440;11.084;2024-03-23T04:29:50;9.30;99.90
14687;DHT22;7431;49.440;11.084;2024-03-23T04:32:16;9.50;99.90
14687;DHT22;7431;49.440;11.084;2024-03-23T04:34:43;9.50;1.00
14687;DHT22;7431;49.440;11.084;2024-03-23T08:17:38;10.70;1.00
14687;DHT22;7431;49.440;11.084;2024-03-23T08:20:03;13.40;99.90
14687;DHT22;7431;49.440;11.084;2024-03-23T08:22:33;12.90;99.90
14687;DHT22;7431;49.440;11.084;2024-03-23T08:24:58;12.40;1.00
14687;DHT22;7431;49.440;11.084;2024-03-23T08:27:24;11.90;1.00
14687;DHT22;7431;49.440;11.084;2024-03-23T08:29:49;11.30;1.00
14687;DHT22;7431;49.440;11.084;2024-03-23T08:32:15;10.70;99.90
14687;DHT22;7431;49.440;11.084;2024-03-23T08:34:42;9.90;1.00
14687;DHT22;7431;49.440;11.084;2024-03-23T08:37:07;10.50;1.00
14687;DHT22;7431;49.440;11.084;2024-03-23T08:39:33;10.00;1.00
14687;DHT22;7431;49.440;11.084;2024-03-23T08:41:58;10.20;99.90
14687;DHT22;7431;49.440;11.084;2024-03-23T08:44:24;10.50;99.90
14687;DHT22;7431;49.440;11.084;2024-03-23T08:46:50;10.80;1.00
14687;DHT22;7431;49.440;11.084;2024-03-23T08:49:15;11.20;1.00
14687;DHT22;7431;49.440;11.084;2024-03-23T08:51:41;11.70;99.90
14687;DHT22;7431;49.440;11.084;2024-03-23T08:54:07;12.00;1.00
14687;DHT22;7431;49.440;11.084;2024-03-23T08:56:33;12.30;1.00
14687;DHT22;7431;49.440;11.084;2024-03-23T08:58:58;13.00;99.90
14687;DHT22;7431;49.440;11.084;2024-03-23T09:01:24;14.00;99.90
14687;DHT22;7431;49.440;11.084;2024-03-23T09:03:49;14.70;7.20
14687;DHT22;7431;49.440;11.084;2024-03-23T09:06:21;15.00;21.70
14687;DHT22;7431;49.440;11.084;2024-03-23T09:08:47;14.70;1.00
14687;DHT22;7431;49.440;11.084;2024-03-23T09:11:13;14.60;13.60
14687;DHT22;7431;49.440;11.084;2024-03-23T09:13:39;14.60;1.00
14687;DHT22;7431;49.440;11.084;2024-03-23T09:16:05;15.60;1.00
14687;DHT22;7431;49.440;11.084;2024-03-23T09:18:32;15.80;1.00
14687;DHT22;7431;49.440;11.084;2024-03-23T09:20:58;15.70;1.00
14687;DHT22;7431;49.440;11.084;2024-03-23T09:23:24;14.90;1.00
14687;DHT22;7431;49.440;11.084;2024-03-23T09:25:49;14.10;1.00
14687;DHT22;7431;49.440;11.084;2024-03-23T09:28:15;14.00;1.00
14687;DHT22;7431;49.440;11.084;2024-03-23T09:30:41;12.90;46.60
14687;DHT22;7431;49.440;11.084;2024-03-23T09:33:10;12.40;99.90
14687;DHT22;7431;49.440;11.084;2024-03-23T09:35:37;13.20;99.90
14687;DHT22;7431;49.440;11.084;2024-03-23T09:38:03;12.40;99.90
14687;DHT22;7431;49.440;11.084;2024-03-23T09:40:29;12.00;99.90
14687;DHT22;7431;49.440;11.084;2024-03-23T09:42:55;12.70;99.90
14687;DHT22;7431;49.440;11.084;2024-03-23T09:45:26;11.60;99.90
14687;DHT22;7431;49.440;11.084;2024-03-23T09:47:52;11.70;99.90
14687;DHT22;7431;49.440;11.084;2024-03-23T09:50:18;11.80;54.60
14687;DHT22;7431;49.440;11.084;2024-03-23T09:52:46;12.30;21.90
14687;DHT22;7431;49.440;11.084;2024-03-23T09:55:11;13.40;1.00
14687;DHT22;7431;49.440;11.084;2024-03-23T09:57:37;14.00;1.00
14687;DHT22;7431;49.440;11.084;2024-03-23T10:00:03;15.40;1.00
14687;DHT22;7431;49.440;11.084;2024-03-23T10:02:29;15.70;1.00
14687;DHT22;7431;49.440;11.084;2024-03-23T10:04:55;16.20;1.00
14687;DHT22;7431;49.440;11.084;2024-03-23T10:07:22;15.70;1.00
14687;DHT22;7431;49.440;11.084;2024-03-23T10:09:48;15.30;1.00
14687;DHT22;7431;49.440;11.084;2024-03-23T10:12:20;14.80;1.00
14687;DHT22;7431;49.440;11.084;2024-03-23T10:14:47;14.40;1.00
14687;DHT22;7431;49.440;11.084;2024-03-23T10:17:18;13.80;1.00
14687;DHT22;7431;49.440;11.084;2024-03-23T10:19:49;13.30;1.00
14687;DHT22;7431;49.440;11.084;2024-03-23T10:22:24;13.20;1.00
14687;DHT22;7431;49.440;11.084;2024-03-23T10:24:50;12.90;1.00
14687;DHT22;7431;49.440;11.084;2024-03-23T10:27:20;12.20;1.00
14687;DHT22;7431;49.440;11.084;2024-03-23T10:29:47;12.50;1.00
14687;DHT22;7431;49.440;11.084;2024-03-23T10:32:14;13.10;1.00
14687;DHT22;7431;49.440;11.084;2024-03-23T10:34:40;13.20;1.00
14687;DHT22;7431;49.440;11.084;2024-03-23T10:37:07;13.30;1.00
14687;DHT22;7431;49.440;11.084;2024-03-23T10:39:35;13.00;1.00
14687;DHT22;7431;49.440;11.084;2024-03-23T10:42:09;13.10;1.00
14687;DHT22;7431;49.440;11.084;2024-03-23T10:44:37;13.80;1.00
14687;DHT22;7431;49.440;11.084;2024-03-23T10:47:04;14.30;1.00
14687;DHT22;7431;49.440;11.084;2024-03-23T10:49:35;13.60;1.00
14687;DHT22;7431;49.440;11.084;2024-03-23T10:52:02;13.60;1.00
14687;DHT22;7431;49.440;11.084;2024-03-23T10:54:30;13.40;1.00
14687;DHT22;7431;49.440;11.084;2024-03-23T10:57:02;13.10;1.00
14687;DHT22;7431;49.440;11.084;2024-03-23T10:59:29;13.50;1.00
14687;DHT22;7431;49.440;11.084;2024-03-23T11:01:59;13.00;1.00
14687;DHT22;7431;49.440;11.084;2024-03-23T11:04:38;12.80;1.00
14687;DHT22;7431;49.440;11.084;2024-03-23T11:07:32;13.00;1.00
14687;DHT22;7431;49.440;11.084;2024-03-23T11:09:59;13.00;1.00
14687;DHT22;7431;49.440;11.084;2024-03-23T11:12:26;13.10;1.00
14687;DHT22;7431;49.440;11.084;2024-03-23T11:15:05;13.00;1.00
14687;DHT22;7431;49.440;11.084;2024-03-23T11:17:31;12.80;1.00
14687;DHT22;7431;49.440;11.084;2024-03-23T11:20:01;12.50;1.00
14687;DHT22;7431;49.440;11.084;2024-03-23T11:22:41;12.70;1.00
14687;DHT22;7431;49.440;11.084;2024-03-23T11:27:43;12.60;1.00
14687;DHT22;7431;49.440;11.084;2024-03-23T11:32:37;12.40;1.00
14687;DHT22;7431;49.440;11.084;2024-03-23T11:35:03;12.70;1.00
14687;DHT22;7431;49.440;11.084;2024-03-23T11:37:28;13.00;1.00
14687;DHT22;7431;49.440;11.084;2024-03-23T11:39:54;13.20;1.00
14687;DHT22;7431;49.440;11.084;2024-03-23T11:42:19;13.10;1.00
14687;DHT22;7431;49.440;11.084;2024-03-23T11:44:47;13.10;1.00
14687;DHT22;7431;49.440;11.084;2024-03-23T11:47:13;13.10;1.00
14687;DHT22;7431;49.440;11.084;2024-03-23T11:49:38;13.00;1.00
14687;DHT22;7431;49.440;11.084;2024-03-23T11:52:06;13.30;1.00
14687;DHT22;7431;49.440;11.084;2024-03-23T11:54:32;12.40;1.00
14687;DHT22;7431;49.440;11.084;2024-03-23T11:57:03;12.40;1.00
14687;DHT22;7431;49.440;11.084;2024-03-23T11:59:40;12.10;1.00
14687;DHT22;7431;49.440;11.084;2024-03-23T12:02:10;12.40;1.00
14687;DHT22;7431;49.440;11.084;2024-03-23T12:04:37;12.90;1.00
14687;DHT22;7431;49.440;11.084;2024-03-23T12:07:19;13.90;1.00
14687;DHT22;7431;49.440;11.084;2024-03-23T12:10:07;13.30;1.00
14687;DHT22;7431;49.440;11.084;2024-03-23T12:12:31;12.60;1.00
14687;DHT22;7431;49.440;11.084;2024-03-23T12:15:05;12.60;1.00
14687;DHT22;7431;49.440;11.084;2024-03-23T12:17:31;12.00;1.00
14687;DHT22;7431;49.440;11.084;2024-03-23T12:19:57;12.60;1.00
14687;DHT22;7431;49.440;11.084;2024-03-23T12:22:23;11.80;1.00
14687;DHT22;7431;49.440;11.084;2024-03-23T12:24:49;11.90;1.00
14687;DHT22;7431;49.440;11.084;2024-03-23T12:27:15;11.90;1.00
14687;DHT22;7431;49.440;11.084;2024-03-23T12:29:41;12.20;1.00
14687;DHT22;7431;49.440;11.084;2024-03-23T12:32:08;12.40;1.00
14687;DHT22;7431;49.440;11.084;2024-03-23T12:34:34;13.50;1.00
14687;DHT22;7431;49.440;11.084;2024-03-23T12:37:00;12.80;1.00
14687;DHT22;7431;49.440;11.084;2024-03-23T12:39:26;12.70;1.00
14687;DHT22;7431;49.440;11.084;2024-03-23T12:41:52;12.50;1.00
14687;DHT22;7431;49.440;11.084;2024-03-23T12:44:18;12.30;1.00
14687;DHT22;7431;49.440;11.084;2024-03-23T12:46:44;12.30;1.00
14687;DHT22;7431;49.440;11.084;2024-03-23T12:49:10;13.60;1.00
14687;DHT22;7431;49.440;11.084;2024-03-23T12:51:36;12.40;1.00
14687;DHT22;7431;49.440;11.084;2024-03-23T12:54:02;12.40;1.00
14687;DHT22;7431;49.440;11.084;2024-03-23T12:56:28;12.50;1.00
14687;DHT22;7431;49.440;11.084;2024-03-23T12:58:54;13.70;1.00
14687;DHT22;7431;49.440;11.084;2024-03-23T13:01:25;11.90;1.00
14687;DHT22;7431;49.440;11.084;2024-03-23T13:03:51;11.80;1.00
14687;DHT22;7431;49.440;11.084;2024-03-23T13:06:17;12.50;1.00
14687;DHT22;7431;49.440;11.084;2024-03-23T13:08:47;11.70;1.00
14687;DHT22;7431;49.440;11.084;2024-03-23T13:11:13;11.40;1.00
14687;DHT22;7431;49.440;11.084;2024-03-23T13:13:39;11.60;1.00
14687;DHT22;7431;49.440;11.084;2024-03-23T13:16:06;11.80;1.00
14687;DHT22;7431;49.440;11.084;2024-03-23T13:18:32;12.40;1.00
14687;DHT22;7431;49.440;11.084;2024-03-23T13:20:58;12.30;1.00
14687;DHT22;7431;49.440;11.084;2024-03-23T13:23:24;13.90;1.00
14687;DHT22;7431;49.440;11.084;2024-03-23T13:25:54;13.30;1.00
14687;DHT22;7431;49.440;11.084;2024-03-23T13:28:21;12.50;1.00
14687;DHT22;7431;49.440;11.084;2024-03-23T13:30:53;12.90;1.00
14687;DHT22;7431;49.440;11.084;2024-03-23T13:33:19;13.20;1.00
14687;DHT22;7431;49.440;11.084;2024-03-23T13:35:54;12.90;1.00
14687;DHT22;7431;49.440;11.084;2024-03-23T13:38:21;14.30;1.00
14687;DHT22;7431;49.440;11.084;2024-03-23T13:40:53;13.70;1.00
14687;DHT22;7431;49.440;11.084;2024-03-23T13:43:19;13.80;1.00
14687;DHT22;7431;49.440;11.084;2024-03-23T13:45:47;13.40;1.00
14687;DHT22;7431;49.440;11.084;2024-03-23T13:48:13;13.10;1.00
14687;DHT22;7431;49.440;11.084;2024-03-23T13:50:39;12.90;1.00
14687;DHT22;7431;49.440;11.084;2024-03-23T13:53:05;12.80;1.00
14687;DHT22;7431;49.440;11.084;2024-03-23T13:55:31;13.20;1.00
14687;DHT22;7431;49.440;11.084;2024-03-23T13:57:57;13.50;1.00
14687;DHT22;7431;49.440;11.084;2024-03-23T14:00:23;12.70;1.00
14687;DHT22;7431;49.440;11.084;2024-03-23T14:02:48;12.90;1.00
14687;DHT22;7431;49.440;11.084;2024-03-23T14:05:14;12.90;1.00
14687;DHT22;7431;49.440;11.084;2024-03-23T14:07:40;13.20;1.00
14687;DHT22;7431;49.440;11.084;2024-03-23T14:10:06;13.60;1.00
14687;DHT22;7431;49.440;11.084;2024-03-23T14:12:32;13.60;1.00
14687;DHT22;7431;49.440;11.084;2024-03-23T14:14:57;13.90;1.00
14687;DHT22;7431;49.440;11.084;2024-03-23T14:17:23;13.90;1.00
14687;DHT22;7431;49.440;11.084;2024-03-23T14:19:49;13.50;1.00
14687;DHT22;7431;49.440;11.084;2024-03-23T14:22:15;13.80;1.00
14687;DHT22;7431;49.440;11.084;2024-03-23T14:24:44;14.30;1.00
14687;DHT22;7431;49.440;11.084;2024-03-23T14:27:10;13.40;1.00
14687;DHT22;7431;49.440;11.084;2024-03-23T14:29:36;13.60;1.00
14687;DHT22;7431;49.440;11.084;2024-03-23T14:32:01;14.00;1.00
14687;DHT22;7431;49.440;11.084;2024-03-23T14:34:27;14.80;1.00
14687;DHT22;7431;49.440;11.084;2024-03-23T14:36:55;13.80;1.00
14687;DHT22;7431;49.440;11.084;2024-03-23T14:39:24;13.70;1.00
14687;DHT22;7431;49.440;11.084;2024-03-23T14:41:52;13.30;1.00
14687;DHT22;7431;49.440;11.084;2024-03-23T14:44:18;12.60;1.00
14687;DHT22;7431;49.440;11.084;2024-03-23T14:46:44;12.50;1.00
14687;DHT22;7431;49.440;11.084;2024-03-23T14:49:14;12.30;1.00
14687;DHT22;7431;49.440;11.084;2024-03-23T14:51:43;12.30;1.00
14687;DHT22;7431;49.440;11.084;2024-03-23T14:54:09;12.50;1.00
